Brewster, Washington
Current Conditions -  °F | °C
As of 10:53 AM on Saturday 25 Oct 2014 (Local Time) from KOMK Reporting Station
Overcast Overcast  
Wind Chill: 46°   Ceiling: 11000
Heat Index: 46°   Visibility: 10mi
Dew Point: 44°   Wind: 0mph
Humidity: 93%   Direction: NA
Pressure: 29.63"   Gusts: NA
Location:  48.1°N, 119.78°W
Report Text: KOMK 251753Z AUTO 00000KT 10SM OVC110 08/07 A2963 RMK AO2 SLP038 T00780067 10089 20061 58025
Loading
Personal Weather Stations






























Interactive Weather Map
Tropical Storm Tracking
New forecast layout! Learn more

10-Day Weather Forecast

Advertisements
Track Severe Weather on mobile